createdAt,value
2018-02-23T05:28:01.361Z,0.1
2018-02-23T05:30:01.223Z,0.2
2018-02-23T05:31:01.096Z,0.3
2018-02-23T05:33:01.323Z,0.4
2018-02-23T05:34:01.095Z,0.5
2018-02-23T05:36:01.063Z,0.7
2018-02-23T05:37:01.099Z,0.8
2018-02-23T05:38:01.334Z,1.0
2018-02-23T05:39:01.063Z,1.2
2018-02-23T05:40:01.097Z,1.5
2018-02-23T05:41:01.095Z,1.7
2018-02-23T05:42:01.094Z,2.1
2018-02-23T05:43:01.345Z,2.4
2018-02-23T05:44:01.095Z,2.8
2018-02-23T05:45:01.119Z,3.3
2018-02-23T05:46:01.095Z,4.0
2018-02-23T05:47:01.105Z,4.8
2018-02-23T05:48:01.397Z,5.8
2018-02-23T05:49:01.095Z,7.0
2018-02-23T05:50:01.066Z,8.5
2018-02-23T05:51:01.129Z,10.1
2018-02-23T05:52:01.099Z,12.1
2018-02-23T05:53:01.297Z,14.5
2018-02-23T05:54:01.109Z,17.3
2018-02-23T05:55:01.096Z,20.7
2018-02-23T05:56:01.126Z,24.9
2018-02-23T05:57:01.097Z,29.9
2018-02-23T05:58:01.306Z,35.7
2018-02-23T05:59:01.100Z,42.5
2018-02-23T06:00:01.096Z,50.3
2018-02-23T06:01:01.130Z,59.5
2018-02-23T06:02:01.098Z,70.4
2018-02-23T06:03:01.300Z,83.3
2018-02-23T06:04:01.097Z,98.9
2018-02-23T06:05:01.101Z,117.6
2018-02-23T06:06:01.133Z,139.7
2018-02-23T06:07:01.102Z,165.4
2018-02-23T06:08:01.421Z,195.5
2018-02-23T06:09:01.066Z,230.3
2018-02-23T06:10:01.097Z,269.7
2018-02-23T06:11:01.164Z,313.9
2018-02-23T06:12:01.115Z,364.4
2018-02-23T06:13:01.375Z,422.3
2018-02-23T06:14:01.071Z,488.6
2018-02-23T06:15:01.107Z,563.9
2018-02-23T06:16:01.135Z,648.7
2018-02-23T06:17:01.108Z,743.5
2018-02-23T06:18:01.570Z,848.2
2018-02-23T06:19:01.105Z,961.9
2018-02-23T06:21:01.112Z,1095.7
2018-02-23T06:22:01.086Z,1236.2
2018-02-23T06:23:01.292Z,1381.5
2018-02-23T06:24:01.088Z,1530.2
2018-02-23T06:25:01.116Z,1683.8
2018-02-23T06:26:01.087Z,1844.1
2018-02-23T06:27:01.057Z,2012.2
2018-02-23T06:28:01.298Z,2188.1
2018-02-23T06:29:01.090Z,2372.1
2018-02-23T06:30:01.123Z,2565.0
2018-02-23T06:31:01.097Z,2767.1
2018-02-23T06:32:01.093Z,2976.8
2018-02-23T06:33:01.298Z,3193.6
2018-02-23T06:34:01.095Z,3417.6
2018-02-23T06:35:01.121Z,3649.6
2018-02-23T06:36:01.090Z,3877.7
2018-02-23T06:37:01.090Z,4114.8
2018-02-23T06:38:01.299Z,4362.1
2018-02-23T06:39:01.134Z,4620.3
2018-02-23T06:40:01.092Z,4888.9
2018-02-23T06:41:01.094Z,5165.8
2018-02-23T06:42:01.099Z,5450.2
2018-02-23T06:43:01.303Z,5742.5
2018-02-23T06:44:01.119Z,6043.1
2018-02-23T06:45:01.065Z,6352.9
2018-02-23T06:46:01.096Z,6674.7
2018-02-23T06:47:01.093Z,7014.5
2018-02-23T06:48:01.307Z,7376.7
2018-02-23T06:49:01.142Z,7763.9
2018-02-23T06:50:01.094Z,8178.2
2018-02-23T06:51:01.063Z,8620.9
2018-02-23T06:52:01.094Z,9092.4
2018-02-23T06:53:01.300Z,9592.7
2018-02-23T06:54:01.118Z,10118.1
2018-02-23T06:55:01.070Z,10663.8
2018-02-23T06:56:01.066Z,11225.2
2018-02-23T06:57:01.065Z,11793.9
2018-02-23T06:58:01.371Z,12362.2
2018-02-23T06:59:01.130Z,12921.6
2018-02-23T07:00:01.066Z,13462.1
2018-02-23T07:01:01.106Z,13966.9
2018-02-23T07:02:01.072Z,14425.1
2018-02-23T07:03:01.310Z,14833.8
2018-02-23T07:05:01.119Z,15194.7
2018-02-23T07:06:01.083Z,15505.9
2018-02-23T07:07:01.086Z,15766.9
2018-02-23T07:08:01.085Z,15980.5
2018-02-23T07:09:01.396Z,16153.7
2018-02-23T07:10:01.053Z,16296.0
2018-02-23T07:11:01.152Z,16416.2
2018-02-23T07:12:01.090Z,16521.5
2018-02-23T07:13:01.056Z,16622.9
2018-02-23T07:14:01.291Z,16728.0
2018-02-23T07:15:01.093Z,16845.1
2018-02-23T07:16:01.125Z,16974.7
2018-02-23T07:17:01.090Z,17119.5
2018-02-23T07:18:01.088Z,17275.6
2018-02-23T07:19:01.291Z,17460.1
2018-02-23T07:20:01.088Z,17714.5
2018-02-23T07:21:01.121Z,17998.1
2018-02-23T07:22:06.126Z,18313.1
2018-02-23T07:23:01.087Z,18695.9
2018-02-23T07:24:01.345Z,19196.4
2018-02-23T07:25:01.088Z,19724.3
2018-02-23T07:26:01.058Z,20218.7
2018-02-23T07:27:01.114Z,20759.8
2018-02-23T07:28:01.055Z,21335.3
2018-02-23T07:29:01.299Z,21967.7
2018-02-23T07:30:01.093Z,22605.1
2018-02-23T07:31:01.147Z,23267.4
2018-02-23T07:32:01.096Z,23938.1
2018-02-23T07:33:01.088Z,24710.0
2018-02-23T07:34:01.298Z,25556.6
2018-02-23T07:35:01.091Z,26476.6
2018-02-23T07:36:01.126Z,27434.1
2018-02-23T07:37:01.089Z,28376.1
2018-02-23T07:38:01.094Z,29288.7
2018-02-23T07:39:02.329Z,30199.2
2018-02-23T07:40:01.094Z,31092.1
2018-02-23T07:41:01.144Z,31938.3
2018-02-23T07:42:01.100Z,32677.3
2018-02-23T07:43:01.095Z,33321.6
2018-02-23T07:44:01.300Z,33807.4
2018-02-23T07:45:01.088Z,34225.3
2018-02-23T07:46:01.131Z,34638.3
2018-02-23T07:47:01.094Z,35128.1
2018-02-23T07:48:01.063Z,35663.8
2018-02-23T07:49:01.305Z,36174.0
2018-02-23T07:50:01.095Z,36625.0
2018-02-23T07:51:01.136Z,37043.6
2018-02-23T07:52:01.095Z,37515.2
2018-02-23T07:53:01.064Z,37910.5
2018-02-23T07:54:01.302Z,38128.3
2018-02-23T07:55:01.063Z,38244.7
2018-02-23T07:56:01.131Z,38350.7
2018-02-23T07:57:01.068Z,38496.8
2018-02-23T07:58:01.097Z,38692.9
2018-02-23T07:59:01.305Z,38978.3
2018-02-23T08:00:01.108Z,39267.1
2018-02-23T08:01:01.120Z,39492.9
2018-02-23T08:02:01.101Z,39701.9
2018-02-23T08:03:01.101Z,39772.8
2018-02-23T08:04:01.305Z,39772.3
2018-02-23T08:05:01.134Z,39688.1
2018-02-23T08:06:01.072Z,39573.5
2018-02-23T08:07:01.102Z,39391.8
2018-02-23T08:08:01.099Z,39301.1
2018-02-23T08:09:01.366Z,39357.9
2018-02-23T08:10:01.144Z,39618.5
2018-02-23T08:11:01.107Z,40032.3
2018-02-23T08:12:01.108Z,40514.7
2018-02-23T08:13:01.107Z,41095.5
2018-02-23T08:14:01.504Z,41752.3
2018-02-23T08:15:01.141Z,42466.5
2018-02-23T08:16:01.110Z,43394.5
2018-02-23T08:17:01.105Z,44647.6
2018-02-23T08:18:01.105Z,46150.8
2018-02-23T08:20:02.116Z,47884.8
2018-02-23T08:21:01.114Z,49621.8
2018-02-23T08:22:01.094Z,51357.6
2018-02-23T08:23:01.088Z,53071.9
2018-02-23T08:24:01.292Z,54754.5
2018-02-23T08:25:01.058Z,56343.8
2018-02-23T08:26:01.119Z,57807.5
2018-02-23T08:27:01.090Z,59100.5
2018-02-23T08:28:06.088Z,60316.5
2018-02-23T08:29:01.305Z,61517.4
2018-02-23T08:30:01.092Z,62628.7
2018-02-23T08:31:01.123Z,63714.1
2018-02-23T08:32:01.093Z,64607.7
2018-02-23T08:33:02.121Z,65096.8
2018-02-23T08:34:01.298Z,65248.7
2018-02-23T08:38:01.121Z,65270.8
2018-02-23T08:42:01.401Z,65360.7
2018-02-23T08:43:01.099Z,65458.3
2018-02-23T08:45:01.094Z,65458.3
2018-02-23T08:49:01.457Z,65535.0
2018-02-23T08:54:01.339Z,65502.0
2018-02-23T08:55:01.098Z,65433.9
2018-02-23T08:56:01.064Z,65263.4
2018-02-23T08:57:01.103Z,65124.4
2018-02-23T09:00:01.100Z,65124.4
2018-02-23T09:09:01.466Z,65157.4
2018-02-23T09:10:01.108Z,65225.5
2018-02-23T09:11:01.106Z,65396.0
2018-02-23T09:12:01.109Z,65535.0
2018-02-23T09:15:01.102Z,65535.0
2018-02-23T09:30:01.101Z,65535.0
2018-02-23T09:45:01.098Z,65535.0
2018-02-23T10:00:01.103Z,65535.0
2018-02-23T10:15:01.140Z,65535.0
2018-02-23T10:30:01.472Z,65535.0
2018-02-23T10:45:01.344Z,65535.0
2018-02-23T11:00:01.474Z,65535.0
2018-02-23T11:15:01.358Z,65535.0
2018-02-23T11:30:02.438Z,65535.0
2018-02-23T11:45:01.460Z,65535.0
2018-02-23T12:00:01.468Z,65535.0
2018-02-23T12:15:01.444Z,65535.0
2018-02-23T12:30:01.393Z,65535.0
2018-02-23T12:45:01.403Z,65535.0
2018-02-23T13:00:01.398Z,65535.0
2018-02-23T13:15:01.405Z,65535.0
2018-02-23T13:30:01.462Z,65535.0
2018-02-23T13:45:01.394Z,65535.0
2018-02-23T14:00:01.402Z,65535.0
2018-02-23T14:15:01.337Z,65535.0
2018-02-23T14:30:04.542Z,65535.0
2018-02-23T14:45:06.307Z,65535.0
2018-02-23T14:47:01.104Z,65269.7
2018-02-23T14:49:03.209Z,64743.1
2018-02-23T14:50:01.330Z,63946.1
2018-02-23T14:54:01.137Z,63235.9
2018-02-23T14:55:01.359Z,62336.3
2018-02-23T14:56:01.101Z,61210.9
2018-02-23T14:57:01.126Z,60016.7
2018-02-23T14:58:01.098Z,58684.2
2018-02-23T14:59:01.101Z,57345.4
2018-02-23T15:00:01.311Z,55877.3
2018-02-23T15:01:01.098Z,54185.9
2018-02-23T15:02:01.137Z,52793.0
2018-02-23T15:03:01.102Z,50847.9
2018-02-23T15:04:01.107Z,49447.0
2018-02-23T15:05:01.320Z,48389.5
2018-02-23T15:06:01.101Z,46528.6
2018-02-23T15:08:01.110Z,44610.8
2018-02-23T15:09:01.085Z,42555.7
2018-02-23T15:10:01.321Z,41160.5
2018-02-23T15:11:01.087Z,39932.9
2018-02-23T15:12:01.110Z,38876.9
2018-02-23T15:13:01.091Z,37871.2
2018-02-23T15:14:01.101Z,36999.0
2018-02-23T15:15:01.295Z,36132.5
2018-02-23T15:16:01.091Z,35416.7
2018-02-23T15:17:01.124Z,34905.4
2018-02-23T15:18:01.092Z,34365.3
2018-02-23T15:19:01.125Z,34116.9
2018-02-23T15:20:01.304Z,33947.3
2018-02-23T15:21:01.093Z,33734.5
2018-02-23T15:22:01.092Z,33800.7
2018-02-23T15:23:01.094Z,34065.1
2018-02-23T15:24:01.177Z,34354.1
2018-02-23T15:25:01.297Z,34507.3
2018-02-23T15:26:01.092Z,34508.3
2018-02-23T15:27:01.143Z,34407.9
2018-02-23T15:28:01.097Z,34274.5
2018-02-23T15:29:01.094Z,34097.3
2018-02-23T15:30:01.297Z,33870.3
2018-02-23T15:31:01.061Z,33597.5
2018-02-23T15:32:01.119Z,33327.4
2018-02-23T15:33:01.064Z,33052.7
2018-02-23T15:34:01.098Z,32763.0
2018-02-23T15:35:01.303Z,32366.5
2018-02-23T15:36:01.118Z,31920.9
2018-02-23T15:37:01.152Z,31175.9
2018-02-23T15:38:01.062Z,30263.1
2018-02-23T15:39:01.061Z,29442.4
2018-02-23T15:40:01.429Z,28784.5
2018-02-23T15:41:01.133Z,28272.3
2018-02-23T15:42:01.070Z,27890.8
2018-02-23T15:43:01.064Z,27539.7
2018-02-23T15:44:01.096Z,27216.2
2018-02-23T15:45:01.370Z,26921.7
2018-02-23T15:46:01.125Z,26626.7
2018-02-23T15:47:01.063Z,26320.8
2018-02-23T15:48:01.101Z,25988.6
2018-02-23T15:49:01.096Z,25638.8
2018-02-23T15:50:01.310Z,25274.0
2018-02-23T15:51:01.140Z,24903.3
2018-02-23T15:52:01.105Z,24535.9
2018-02-23T15:53:01.104Z,24174.2
2018-02-23T15:54:01.107Z,23811.4
2018-02-23T15:55:01.316Z,23451.6
2018-02-23T15:56:01.127Z,23097.5
2018-02-23T15:57:01.104Z,22743.1
2018-02-23T15:58:01.101Z,22385.5
2018-02-23T15:59:01.103Z,22021.9
2018-02-23T16:00:01.309Z,21653.5
2018-02-23T16:02:01.114Z,21266.2
2018-02-23T16:03:01.085Z,20883.3
2018-02-23T16:04:01.083Z,20503.3
2018-02-23T16:05:01.090Z,20125.9
2018-02-23T16:06:01.291Z,19748.3
2018-02-23T16:07:01.117Z,19369.5
2018-02-23T16:08:01.126Z,18986.5
2018-02-23T16:09:01.051Z,18599.0
2018-02-23T16:10:01.052Z,18210.1
2018-02-23T16:11:01.330Z,17817.4
2018-02-23T16:12:01.115Z,17420.7
2018-02-23T16:13:01.057Z,17021.5
2018-02-23T16:14:01.084Z,16619.5
2018-02-23T16:15:01.090Z,16217.9
2018-02-23T16:16:01.292Z,15815.7
2018-02-23T16:17:01.088Z,15432.5
2018-02-23T16:18:01.116Z,15047.6
2018-02-23T16:19:01.055Z,14661.7
2018-02-23T16:20:01.053Z,14275.1
2018-02-23T16:21:01.293Z,13887.8
2018-02-23T16:22:01.089Z,13501.1
2018-02-23T16:23:01.093Z,13116.5
2018-02-23T16:24:01.128Z,12732.6
2018-02-23T16:25:01.055Z,12346.3
2018-02-23T16:26:01.417Z,11958.6
2018-02-23T16:27:01.090Z,11572.0
2018-02-23T16:28:01.087Z,11188.5
2018-02-23T16:29:01.084Z,10807.7
2018-02-23T16:30:01.143Z,10429.3
2018-02-23T16:31:01.365Z,10053.3
2018-02-23T16:32:01.090Z,9678.2
2018-02-23T16:33:01.087Z,9303.9
2018-02-23T16:34:01.095Z,8931.0
2018-02-23T16:35:01.124Z,8561.4
2018-02-23T16:36:01.326Z,8195.7
2018-02-23T16:37:01.093Z,7834.1
2018-02-23T16:38:01.066Z,7476.9
2018-02-23T16:39:01.061Z,7123.5
2018-02-23T16:40:01.092Z,6775.0
2018-02-23T16:41:01.333Z,6432.8
2018-02-23T16:42:01.095Z,6097.1
2018-02-23T16:43:01.092Z,5767.8
2018-02-23T16:44:01.064Z,5445.1
2018-02-23T16:45:01.098Z,5130.0
2018-02-23T16:46:01.329Z,4823.3
2018-02-23T16:47:01.097Z,4525.4
2018-02-23T16:48:01.116Z,4236.7
2018-02-23T16:49:01.062Z,3957.8
2018-02-23T16:50:01.063Z,3688.7
2018-02-23T16:51:01.538Z,3430.0
2018-02-23T16:52:01.064Z,3181.9
2018-02-23T16:53:01.118Z,2944.4
2018-02-23T16:54:01.095Z,2717.8
2018-02-23T16:55:01.102Z,2502.3
2018-02-23T16:56:01.304Z,2297.5
2018-02-23T16:57:01.127Z,2103.9
2018-02-23T16:58:01.100Z,1921.4
2018-02-23T16:59:01.098Z,1749.9
2018-02-23T17:00:01.101Z,1589.2
2018-02-23T17:01:01.310Z,1439.0
2018-02-23T17:02:01.129Z,1299.0
2018-02-23T17:03:01.099Z,1168.9
2018-02-23T17:04:01.109Z,1048.4
2018-02-23T17:05:01.102Z,937.1
2018-02-23T17:06:01.383Z,834.7
2018-02-23T17:07:01.136Z,740.8
2018-02-23T17:08:01.106Z,654.9
2018-02-23T17:09:01.102Z,576.8
2018-02-23T17:10:01.106Z,506.1
2018-02-23T17:11:01.374Z,442.4
2018-02-23T17:12:01.073Z,385.3
2018-02-23T17:14:01.094Z,333.3
2018-02-23T17:15:01.088Z,287.1
2018-02-23T17:16:01.317Z,246.3
2018-02-23T17:17:01.116Z,210.2
2018-02-23T17:18:01.091Z,178.6
2018-02-23T17:19:01.088Z,151.0
2018-02-23T17:20:01.090Z,127.0
2018-02-23T17:21:01.302Z,106.2
2018-02-23T17:22:01.123Z,88.3
2018-02-23T17:23:01.093Z,73.1
2018-02-23T17:24:01.103Z,60.1
2018-02-23T17:25:01.099Z,49.2
2018-02-23T17:26:01.300Z,40.1
2018-02-23T17:27:01.119Z,32.5
2018-02-23T17:28:01.127Z,26.1
2018-02-23T17:29:01.098Z,21.7
2018-02-23T17:30:01.164Z,18.1
2018-02-23T17:31:01.310Z,15.0
2018-02-23T17:32:01.099Z,12.5
2018-02-23T17:33:01.247Z,10.5
2018-02-23T17:34:01.099Z,8.7
2018-02-23T17:35:01.095Z,7.3
2018-02-23T17:36:01.303Z,6.2
2018-02-23T17:37:01.100Z,5.2
2018-02-23T17:38:01.128Z,4.4
2018-02-23T17:39:01.064Z,3.7
2018-02-23T17:40:01.064Z,3.2
2018-02-23T17:41:06.307Z,2.7
2018-02-23T17:42:01.098Z,2.3
2018-02-23T17:43:01.124Z,2.0
2018-02-23T17:44:01.098Z,1.7
2018-02-23T17:45:01.125Z,1.5
2018-02-23T17:46:01.315Z,1.4
2018-02-23T17:47:01.098Z,1.2
2018-02-23T17:48:01.105Z,1.1
2018-02-23T17:49:01.098Z,0.9
2018-02-23T17:50:01.179Z,0.8
2018-02-23T17:51:01.502Z,0.7
2018-02-23T17:52:01.098Z,0.6
2018-02-23T17:53:01.071Z,0.5
2018-02-23T17:55:01.134Z,0.4
2018-02-23T17:56:01.304Z,0.3
2018-02-23T17:58:01.106Z,0.2
2018-02-23T17:59:01.110Z,0.1
2018-02-23T18:00:01.144Z,0.1
2018-02-23T19:30:00.977Z,0.0
2018-02-23T19:45:00.816Z,0.0
2018-02-23T20:00:00.947Z,0.0
2018-02-23T20:15:00.970Z,0.0
2018-02-23T20:30:00.955Z,0.0
2018-02-23T20:45:01.855Z,0.0
2018-02-23T21:00:00.956Z,0.0
2018-02-23T21:15:00.989Z,0.0
2018-02-23T21:30:00.979Z,0.0
2018-02-23T21:45:00.900Z,0.0
2018-02-23T22:00:00.976Z,0.0
2018-02-23T22:15:02.019Z,0.0
2018-02-23T22:30:00.998Z,0.0
2018-02-23T22:45:00.912Z,0.0
2018-02-23T23:00:00.889Z,0.0
2018-02-23T23:15:00.879Z,0.0
2018-02-23T23:30:00.893Z,0.0
2018-02-23T23:45:00.873Z,0.0
